Time;durP1;ratioP1;P1;durP2;ratioP2;P2;SDS_P1;SDS_P2;PMS_P1;PMS_P2;Temp;Humidity;BMP_temperature;BMP_pressure;BME280_temperature;BME280_humidity;BME280_pressure;Samples;Min_cycle;Max_cycle;Signal;HPM_P1;HPM_P2
2023/07/16 00:00:52;;;;;;;20.92;18.88;;;17.10;99.90;;;;;;5109442;27;20027;-85
2023/07/16 00:03:18;;;;;;;19.15;14.23;;;17.10;99.90;;;;;;5103837;28;20099;-85
2023/07/16 00:05:43;;;;;;;16.65;15.05;;;17.10;99.90;;;;;;5086428;28;20151;-84
2023/07/16 00:08:09;;;;;;;21.20;19.15;;;17.00;99.90;;;;;;5086479;28;20118;-86
2023/07/16 00:10:36;;;;;;;18.27;16.48;;;17.00;99.90;;;;;;5096804;28;20272;-85
2023/07/16 00:13:05;;;;;;;17.92;16.27;;;17.00;99.90;;;;;;5087480;28;20032;-86
2023/07/16 00:15:30;;;;;;;19.90;17.42;;;17.00;99.90;;;;;;5114030;27;20067;-85
2023/07/16 00:17:59;;;;;;;15.48;12.20;;;16.90;99.90;;;;;;5100253;28;20067;-84
2023/07/16 00:20:25;;;;;;;24.58;22.45;;;16.90;99.90;;;;;;5093896;28;20046;-85
2023/07/16 00:22:51;;;;;;;24.85;22.73;;;16.80;99.90;;;;;;5086423;28;20027;-85
2023/07/16 00:25:17;;;;;;;20.63;18.52;;;16.80;99.90;;;;;;5086481;28;20111;-85
2023/07/16 00:27:46;;;;;;;16.70;14.10;;;16.80;99.90;;;;;;5103718;28;21545;-85
2023/07/16 00:30:15;;;;;;;18.90;17.08;;;16.80;99.90;;;;;;5087814;28;20027;-85
2023/07/16 00:32:41;;;;;;;20.13;13.05;;;16.80;99.90;;;;;;5098247;28;20049;-86
2023/07/16 00:35:07;;;;;;;14.70;12.52;;;16.70;99.90;;;;;;5112291;28;20067;-86
2023/07/16 00:37:34;;;;;;;16.27;14.35;;;16.70;99.90;;;;;;5092315;28;20035;-85
2023/07/16 00:40:00;;;;;;;23.08;21.00;;;16.60;99.90;;;;;;5095893;28;20039;-85
2023/07/16 00:42:25;;;;;;;14.55;9.18;;;16.60;99.90;;;;;;5112962;28;20054;-84
2023/07/16 00:44:51;;;;;;;15.13;12.48;;;16.60;99.90;;;;;;5091195;28;20043;-85
2023/07/16 00:47:20;;;;;;;14.43;11.18;;;16.60;99.90;;;;;;5117124;27;20485;-86
2023/07/16 00:49:46;;;;;;;10.10;7.35;;;16.50;99.90;;;;;;5089833;28;20055;-85
2023/07/16 00:52:18;;;;;;;13.63;8.23;;;16.50;99.90;;;;;;5106863;28;20047;-86
2023/07/16 00:54:43;;;;;;;14.02;12.68;;;16.50;99.90;;;;;;5089987;28;20412;-85
2023/07/16 00:57:09;;;;;;;20.45;8.27;;;16.40;99.90;;;;;;5090045;28;20042;-85
2023/07/16 00:59:35;;;;;;;13.57;9.23;;;16.50;99.90;;;;;;5107627;28;20071;-84
2023/07/16 01:02:01;;;;;;;13.27;9.38;;;16.60;99.90;;;;;;5090343;28;20043;-86
2023/07/16 01:04:26;;;;;;;12.93;9.90;;;16.60;99.90;;;;;;5090815;28;20035;-85
2023/07/16 01:06:57;;;;;;;11.30;5.90;;;16.60;99.90;;;;;;5119102;27;20027;-85
2023/07/16 01:09:24;;;;;;;14.20;9.38;;;16.60;99.90;;;;;;5107415;28;20036;-86
2023/07/16 01:11:53;;;;;;;14.65;9.68;;;16.70;99.90;;;;;;5107915;28;20036;-85
2023/07/16 01:14:20;;;;;;;20.20;7.95;;;16.70;99.90;;;;;;5107119;28;20055;-86
2023/07/16 01:16:48;;;;;;;20.85;9.68;;;16.70;99.90;;;;;;5090898;28;20089;-85
2023/07/16 01:19:14;;;;;;;14.48;9.73;;;16.70;99.90;;;;;;5089825;28;20161;-85
2023/07/16 01:21:56;;;;;;;10.18;6.68;;;16.70;99.90;;;;;;5106982;28;20138;-85
2023/07/16 01:24:49;;;;;;;14.25;11.68;;;16.60;99.90;;;;;;5107772;28;20047;-85
2023/07/16 01:27:27;;;;;;;15.80;14.20;;;16.60;99.90;;;;;;5089496;28;20385;-85
2023/07/16 01:30:01;;;;;;;15.93;10.52;;;16.60;99.90;;;;;;5108634;28;20107;-85
2023/07/16 01:32:30;;;;;;;17.80;8.23;;;16.60;99.90;;;;;;5089410;28;20277;-85
2023/07/16 01:34:57;;;;;;;16.92;9.10;;;16.60;99.90;;;;;;5088706;28;20043;-86
2023/07/16 01:37:26;;;;;;;17.42;15.70;;;16.50;99.90;;;;;;5090219;28;20106;-86
2023/07/16 01:39:52;;;;;;;12.50;9.13;;;16.50;99.90;;;;;;5108332;28;20127;-85
2023/07/16 01:42:20;;;;;;;14.35;9.43;;;16.50;99.90;;;;;;5105757;28;20461;-86
2023/07/16 01:44:46;;;;;;;19.25;16.80;;;16.40;99.90;;;;;;5106461;28;20056;-85
2023/07/16 01:47:48;;;;;;;18.50;16.70;;;16.10;99.90;;;;;;5106204;28;20173;-85
2023/07/16 01:50:14;;;;;;;22.27;20.08;;;16.30;99.90;;;;;;5088308;28;20059;-85
2023/07/16 01:52:40;;;;;;;17.58;13.48;;;16.20;99.90;;;;;;5106333;28;20036;-85
2023/07/16 01:55:06;;;;;;;19.55;16.13;;;16.20;99.90;;;;;;5089594;28;20039;-85
2023/07/16 01:57:31;;;;;;;26.15;23.70;;;16.20;99.90;;;;;;5101413;28;20036;-85
2023/07/16 01:59:57;;;;;;;24.98;22.63;;;16.20;99.90;;;;;;5106047;28;20413;-85
2023/07/16 02:02:23;;;;;;;27.20;24.63;;;16.20;99.90;;;;;;5105671;28;20040;-84
2023/07/16 02:04:48;;;;;;;18.80;15.63;;;16.20;99.90;;;;;;5118545;27;20456;-85
2023/07/16 02:07:14;;;;;;;19.92;18.13;;;16.50;99.90;;;;;;5106015;28;20028;-86
2023/07/16 02:09:40;;;;;;;18.45;16.70;;;16.20;99.90;;;;;;5088628;28;20044;-85
2023/07/16 02:12:08;;;;;;;19.30;17.70;;;16.20;99.90;;;;;;5095466;28;20043;-85
2023/07/16 02:14:34;;;;;;;16.60;14.98;;;16.20;99.90;;;;;;5089522;28;20040;-85
2023/07/16 02:17:00;;;;;;;24.23;22.08;;;16.30;99.90;;;;;;5088544;28;20032;-86
2023/07/16 02:19:27;;;;;;;17.38;15.70;;;16.30;99.90;;;;;;5105363;28;20085;-86
2023/07/16 02:21:54;;;;;;;18.52;16.60;;;16.40;99.90;;;;;;5105484;28;20390;-85
2023/07/16 02:24:20;;;;;;;20.13;17.85;;;16.30;99.90;;;;;;5106811;28;20400;-85
2023/07/16 02:26:45;;;;;;;20.92;18.05;;;16.50;99.90;;;;;;5105391;28;20028;-85
2023/07/16 02:29:11;;;;;;;16.05;14.07;;;16.40;99.90;;;;;;5094370;28;20040;-85
2023/07/16 02:31:37;;;;;;;13.90;7.53;;;16.40;99.90;;;;;;5112579;27;20037;-85
2023/07/16 02:34:03;;;;;;;17.00;7.80;;;16.50;99.90;;;;;;5105623;28;20063;-85
2023/07/16 02:36:28;;;;;;;12.13;7.47;;;16.50;99.90;;;;;;5087939;28;20048;-86
2023/07/16 02:38:54;;;;;;;12.73;6.60;;;16.50;99.90;;;;;;5089101;28;20050;-85
2023/07/16 02:41:20;;;;;;;13.07;8.10;;;16.30;99.90;;;;;;5087911;28;20126;-85
2023/07/16 02:43:46;;;;;;;16.20;6.50;;;16.50;99.90;;;;;;5087956;28;20097;-85
2023/07/16 02:46:12;;;;;;;14.52;6.95;;;16.50;99.90;;;;;;5088510;28;20047;-84
2023/07/16 02:48:38;;;;;;;10.60;6.40;;;16.50;99.90;;;;;;5104542;28;20108;-84
2023/07/16 02:51:03;;;;;;;12.10;8.23;;;16.50;99.90;;;;;;5088259;28;20047;-84
2023/07/16 02:53:29;;;;;;;14.10;6.55;;;16.40;99.90;;;;;;5087735;28;20416;-85
2023/07/16 02:55:55;;;;;;;12.85;5.63;;;16.40;99.90;;;;;;5088124;28;20115;-86
2023/07/16 02:58:23;;;;;;;9.35;6.55;;;16.40;99.90;;;;;;5106105;28;20035;-85
2023/07/16 03:00:48;;;;;;;13.88;6.95;;;16.40;99.90;;;;;;5094645;28;20104;-85
2023/07/16 03:03:14;;;;;;;11.43;6.22;;;16.40;99.90;;;;;;5091274;28;20035;-85
2023/07/16 03:05:40;;;;;;;12.43;8.27;;;16.40;99.90;;;;;;5111094;28;20057;-85
2023/07/16 03:08:05;;;;;;;14.48;10.93;;;16.50;99.90;;;;;;5090664;28;20031;-85
2023/07/16 03:10:31;;;;;;;11.38;5.82;;;16.50;99.90;;;;;;5092074;28;20032;-84
2023/07/16 03:12:57;;;;;;;15.18;5.38;;;16.50;99.90;;;;;;5087311;28;20043;-85
2023/07/16 03:15:23;;;;;;;10.82;5.95;;;16.60;99.90;;;;;;5087497;28;20137;-85
2023/07/16 03:17:52;;;;;;;12.98;6.15;;;16.50;99.90;;;;;;5087402;28;20040;-85
2023/07/16 03:20:17;;;;;;;13.90;6.15;;;16.60;99.90;;;;;;5104698;28;20047;-85
2023/07/16 03:22:43;;;;;;;11.63;7.72;;;16.50;99.90;;;;;;5087506;28;20100;-85
2023/07/16 03:25:09;;;;;;;12.93;6.85;;;16.50;99.90;;;;;;5104698;28;20035;-85
2023/07/16 03:27:35;;;;;;;13.68;5.72;;;16.50;99.90;;;;;;5087326;28;20430;-85
2023/07/16 03:30:01;;;;;;;11.43;6.78;;;16.50;99.90;;;;;;5103177;28;20041;-85
2023/07/16 03:32:27;;;;;;;10.05;6.20;;;16.50;99.90;;;;;;5086510;28;20093;-84
2023/07/16 03:34:55;;;;;;;14.43;5.90;;;16.50;99.90;;;;;;5088100;28;20455;-86
2023/07/16 03:37:21;;;;;;;14.25;6.45;;;16.40;99.90;;;;;;5087470;28;20034;-84
2023/07/16 03:39:46;;;;;;;12.07;6.15;;;16.40;99.90;;;;;;5087158;28;20075;-86
2023/07/16 03:42:12;;;;;;;11.88;6.13;;;16.40;99.90;;;;;;5104525;28;20120;-85
2023/07/16 03:44:38;;;;;;;12.65;6.05;;;16.50;99.90;;;;;;5103238;28;20038;-85
2023/07/16 03:47:04;;;;;;;18.35;6.82;;;16.50;99.90;;;;;;5088273;28;20435;-85
2023/07/16 03:49:29;;;;;;;14.32;6.72;;;16.50;99.90;;;;;;5104365;28;20067;-84
2023/07/16 03:51:55;;;;;;;12.57;6.85;;;16.50;99.90;;;;;;5087265;28;20038;-85
2023/07/16 03:54:21;;;;;;;13.82;7.28;;;16.50;99.90;;;;;;5087687;28;20032;-84
2023/07/16 03:56:46;;;;;;;12.82;6.90;;;16.50;99.90;;;;;;5087173;28;20032;-85
2023/07/16 03:59:12;;;;;;;15.30;5.93;;;16.50;99.90;;;;;;5103392;28;20130;-84
2023/07/16 04:01:38;;;;;;;16.08;7.40;;;16.50;99.90;;;;;;5095601;28;20373;-85
2023/07/16 04:04:04;;;;;;;14.48;6.25;;;16.60;99.90;;;;;;5103275;28;20090;-85
2023/07/16 04:06:29;;;;;;;11.90;5.82;;;16.50;99.90;;;;;;5105233;28;20038;-85
2023/07/16 04:08:58;;;;;;;17.10;6.50;;;16.40;99.90;;;;;;5103717;28;20127;-85
2023/07/16 04:11:24;;;;;;;12.05;5.72;;;16.80;99.90;;;;;;5086428;28;20153;-85
2023/07/16 04:13:50;;;;;;;13.45;6.05;;;16.60;99.90;;;;;;5103396;28;20138;-85
2023/07/16 04:16:15;;;;;;;17.13;6.50;;;16.60;99.90;;;;;;5100315;28;20038;-85
2023/07/16 04:18:41;;;;;;;16.95;6.80;;;16.60;99.90;;;;;;5103373;28;20128;-85
2023/07/16 04:21:07;;;;;;;14.35;6.50;;;16.60;99.90;;;;;;5086875;28;20047;-85
2023/07/16 04:23:33;;;;;;;11.63;7.03;;;16.70;99.90;;;;;;5086910;28;20044;-85
2023/07/16 04:26:01;;;;;;;14.85;6.60;;;16.70;99.90;;;;;;5086906;28;20039;-85
2023/07/16 04:28:27;;;;;;;13.38;6.50;;;16.70;99.90;;;;;;5102670;28;20515;-85
2023/07/16 04:30:56;;;;;;;12.82;6.28;;;16.70;99.90;;;;;;5103857;28;20036;-85
2023/07/16 04:33:21;;;;;;;15.55;6.68;;;16.80;99.90;;;;;;5108767;28;20492;-85
2023/07/16 04:35:47;;;;;;;13.48;6.65;;;16.80;99.90;;;;;;5104022;28;20039;-84
2023/07/16 04:38:13;;;;;;;18.02;7.82;;;16.80;99.90;;;;;;5103379;28;20100;-85
2023/07/16 04:40:38;;;;;;;11.98;6.18;;;16.90;99.90;;;;;;5103864;28;20088;-85
2023/07/16 04:43:04;;;;;;;15.73;7.43;;;16.90;99.90;;;;;;5103553;28;20039;-85
2023/07/16 04:45:30;;;;;;;12.98;6.63;;;17.00;99.90;;;;;;5086081;28;20054;-85
2023/07/16 04:47:55;;;;;;;15.27;6.53;;;17.00;99.90;;;;;;5104441;28;20039;-85
2023/07/16 04:50:21;;;;;;;16.30;7.47;;;17.00;99.90;;;;;;5086650;28;20118;-85
2023/07/16 04:52:47;;;;;;;16.75;7.35;;;17.10;99.90;;;;;;5103600;28;20075;-85
2023/07/16 04:55:13;;;;;;;12.10;6.00;;;17.10;99.90;;;;;;5086173;28;20409;-84
2023/07/16 04:57:39;;;;;;;15.07;6.40;;;17.20;99.90;;;;;;5114099;28;20038;-85
2023/07/16 05:00:06;;;;;;;15.32;6.65;;;17.20;99.90;;;;;;5086586;28;20478;-84
2023/07/16 05:02:32;;;;;;;15.13;6.35;;;17.30;99.90;;;;;;5104686;28;20065;-84
2023/07/16 05:05:00;;;;;;;14.57;6.80;;;17.30;99.90;;;;;;5086319;28;20067;-86
2023/07/16 05:07:26;;;;;;;13.27;6.47;;;17.30;99.90;;;;;;5087423;28;20036;-84
2023/07/16 05:09:52;;;;;;;12.63;5.57;;;17.30;99.90;;;;;;5106570;28;20457;-85
2023/07/16 05:12:20;;;;;;;14.30;6.82;;;17.40;99.90;;;;;;5108070;28;20042;-85
2023/07/16 05:14:48;;;;;;;14.65;6.10;;;17.40;99.90;;;;;;5090119;28;20119;-85
2023/07/16 05:17:14;;;;;;;13.77;6.82;;;17.40;99.90;;;;;;5110853;28;20032;-85
2023/07/16 05:19:40;;;;;;;15.50;6.50;;;17.50;99.90;;;;;;5115465;28;20093;-85
2023/07/16 05:22:06;;;;;;;14.52;6.13;;;17.70;99.90;;;;;;5115698;28;20044;-85
2023/07/16 05:24:32;;;;;;;14.05;5.90;;;18.40;99.90;;;;;;5114252;28;20075;-85
2023/07/16 05:27:01;;;;;;;13.25;5.35;;;19.60;99.90;;;;;;5113055;28;20055;-85
2023/07/16 05:29:27;;;;;;;13.52;4.90;;;20.80;99.90;;;;;;5112164;28;20061;-85
2023/07/16 05:31:53;;;;;;;13.10;5.53;;;21.90;99.90;;;;;;5104846;28;20031;-86
2023/07/16 05:34:22;;;;;;;13.85;5.20;;;22.50;99.90;;;;;;5101359;28;20599;-86
2023/07/16 05:36:48;;;;;;;11.07;5.53;;;23.30;99.90;;;;;;5095750;28;20059;-85
2023/07/16 05:39:14;;;;;;;12.02;6.00;;;24.20;99.90;;;;;;5111668;28;20122;-87
2023/07/16 05:41:40;;;;;;;9.95;5.30;;;24.60;98.40;;;;;;5112596;28;20442;-85
2023/07/16 05:44:06;;;;;;;13.35;6.88;;;24.90;98.10;;;;;;5094371;28;20123;-86
2023/07/16 05:46:34;;;;;;;12.05;4.57;;;25.20;97.10;;;;;;5093885;28;20169;-86
2023/07/16 05:48:59;;;;;;;11.52;5.15;;;25.70;97.50;;;;;;5110698;28;20040;-85
2023/07/16 05:51:25;;;;;;;12.55;7.60;;;26.00;97.10;;;;;;5111191;28;20039;-86
2023/07/16 05:53:51;;;;;;;9.07;5.45;;;26.60;96.70;;;;;;5093000;28;20054;-86
2023/07/16 05:56:16;;;;;;;17.38;15.45;;;26.90;96.30;;;;;;5092824;28;20035;-86
2023/07/16 05:58:42;;;;;;;59.30;55.55;;;27.10;95.20;;;;;;5110245;28;20036;-85
2023/07/16 06:01:08;;;;;;;112.00;105.07;;;27.20;95.40;;;;;;5110181;28;20170;-85
2023/07/16 06:03:34;;;;;;;129.48;121.07;;;27.60;95.30;;;;;;5109919;28;20128;-86
2023/07/16 06:06:00;;;;;;;113.78;106.65;;;28.20;94.20;;;;;;5111524;28;20065;-85
2023/07/16 06:08:26;;;;;;;210.73;198.27;;;28.10;93.90;;;;;;5093115;28;20050;-86
2023/07/16 06:10:52;;;;;;;313.20;293.60;;;27.70;94.00;;;;;;5109426;28;20103;-86
2023/07/16 06:13:17;;;;;;;271.95;255.15;;;27.10;94.50;;;;;;5109371;28;20118;-86
2023/07/16 06:15:44;;;;;;;249.52;234.02;;;27.00;94.40;;;;;;5109709;28;20083;-85
2023/07/16 06:18:13;;;;;;;334.50;313.60;;;27.90;95.10;;;;;;5109406;28;20051;-85
2023/07/16 06:20:55;;;;;;;433.85;404.77;;;27.80;93.90;;;;;;5092498;28;20396;-85
2023/07/16 06:23:21;;;;;;;324.93;303.93;;;27.00;94.10;;;;;;5092011;28;20070;-85
2023/07/16 06:25:48;;;;;;;83.72;78.53;;;25.80;94.80;;;;;;5092080;28;20279;-85
2023/07/16 06:28:19;;;;;;;36.00;33.13;;;24.60;95.30;;;;;;5109252;28;20044;-85
2023/07/16 06:31:00;;;;;;;35.60;32.90;;;23.60;96.40;;;;;;5091870;28;20142;-85
2023/07/16 06:33:28;;;;;;;12.32;10.27;;;23.10;97.10;;;;;;5091414;28;20040;-85
2023/07/16 06:35:53;;;;;;;11.07;8.80;;;22.80;98.00;;;;;;5110052;28;20109;-85
2023/07/16 06:38:19;;;;;;;9.75;6.63;;;22.70;98.10;;;;;;5110018;28;20043;-85
2023/07/16 06:40:49;;;;;;;11.98;6.82;;;22.40;98.30;;;;;;5108398;28;20027;-85
2023/07/16 06:43:16;;;;;;;8.95;5.60;;;22.50;98.60;;;;;;5092197;28;20538;-85
2023/07/16 06:45:42;;;;;;;17.95;6.13;;;22.40;98.70;;;;;;5109054;28;20043;-84
2023/07/16 06:48:08;;;;;;;13.00;5.25;;;22.20;99.20;;;;;;5110100;28;20038;-84
2023/07/16 06:50:33;;;;;;;15.00;5.53;;;22.30;99.00;;;;;;5109287;28;20035;-85
2023/07/16 06:52:59;;;;;;;12.68;4.78;;;22.20;98.70;;;;;;5108539;28;20046;-85
2023/07/16 06:55:25;;;;;;;12.52;5.38;;;22.10;99.20;;;;;;5090846;28;20047;-84
2023/07/16 06:57:51;;;;;;;11.73;6.28;;;22.00;99.70;;;;;;5090781;28;20042;-84
2023/07/16 07:00:17;;;;;;;12.88;6.15;;;22.70;99.90;;;;;;5091032;28;20133;-84
2023/07/16 07:02:42;;;;;;;11.68;5.32;;;24.20;99.00;;;;;;5090635;28;20040;-85
2023/07/16 07:05:08;;;;;;;8.80;4.07;;;25.40;97.30;;;;;;5091267;28;20058;-84
2023/07/16 07:07:34;;;;;;;14.65;5.78;;;25.10;96.40;;;;;;5107197;28;20036;-85
2023/07/16 07:10:00;;;;;;;14.20;7.18;;;24.40;96.60;;;;;;5109646;28;20044;-84
2023/07/16 07:12:26;;;;;;;12.60;6.97;;;23.50;97.10;;;;;;5108176;28;20123;-85
2023/07/16 07:14:51;;;;;;;13.23;6.25;;;23.00;97.40;;;;;;5109853;28;20266;-85
2023/07/16 07:17:17;;;;;;;9.90;5.95;;;22.30;98.20;;;;;;5108340;28;20032;-85
2023/07/16 07:19:43;;;;;;;8.80;5.70;;;22.00;98.80;;;;;;5107807;28;20059;-84
2023/07/16 07:22:10;;;;;;;15.20;6.35;;;21.80;99.30;;;;;;5090797;28;20054;-84
2023/07/16 07:24:35;;;;;;;16.63;14.90;;;22.00;99.40;;;;;;5109394;28;20474;-84
2023/07/16 07:27:02;;;;;;;10.52;6.60;;;22.20;99.20;;;;;;5108013;28;20127;-85
2023/07/16 07:29:27;;;;;;;9.35;5.80;;;22.20;98.80;;;;;;5091014;28;20039;-84
2023/07/16 07:31:53;;;;;;;13.05;6.38;;;22.30;99.40;;;;;;5091225;28;20043;-84
2023/07/16 07:34:19;;;;;;;14.27;5.35;;;23.20;99.20;;;;;;5090889;28;20043;-84
2023/07/16 07:36:48;;;;;;;10.77;5.25;;;23.90;97.70;;;;;;5090761;28;20039;-85
2023/07/16 07:39:14;;;;;;;12.63;6.50;;;23.90;97.30;;;;;;5109076;28;20050;-84
2023/07/16 07:41:40;;;;;;;16.08;7.88;;;23.30;97.00;;;;;;5090791;28;20433;-85
2023/07/16 07:44:05;;;;;;;9.90;6.43;;;23.00;97.80;;;;;;5107758;28;20043;-86
2023/07/16 07:46:31;;;;;;;8.80;6.50;;;22.80;98.60;;;;;;5108186;28;20428;-85
2023/07/16 07:48:57;;;;;;;9.13;4.43;;;23.40;99.00;;;;;;5108572;28;20039;-84
2023/07/16 07:51:25;;;;;;;11.27;5.82;;;24.50;98.00;;;;;;5113202;28;20448;-85
2023/07/16 07:53:54;;;;;;;10.50;5.57;;;24.70;96.50;;;;;;5113211;28;20028;-84
2023/07/16 07:56:20;;;;;;;7.82;4.90;;;24.40;96.80;;;;;;5111999;28;20062;-85
2023/07/16 07:58:45;;;;;;;10.15;5.43;;;24.20;95.80;;;;;;5121493;28;20183;-85
2023/07/16 08:01:11;;;;;;;11.30;5.07;;;24.10;97.00;;;;;;5112493;28;20537;-85
2023/07/16 08:03:37;;;;;;;15.68;5.53;;;23.90;96.40;;;;;;5092786;28;20066;-85
2023/07/16 08:06:03;;;;;;;11.88;5.07;;;23.70;96.80;;;;;;5108064;28;20079;-84
2023/07/16 08:08:29;;;;;;;10.77;6.75;;;23.40;97.10;;;;;;5091109;28;20035;-84
2023/07/16 08:10:55;;;;;;;10.75;5.00;;;23.20;96.80;;;;;;5107850;28;20580;-84
2023/07/16 08:13:23;;;;;;;9.75;6.40;;;23.10;97.60;;;;;;5091222;28;20040;-84
2023/07/16 08:15:51;;;;;;;19.40;7.10;;;22.90;98.10;;;;;;5108897;28;20472;-83
2023/07/16 08:18:17;;;;;;;9.45;6.20;;;22.70;98.00;;;;;;5107451;28;20122;-84
2023/07/16 08:20:43;;;;;;;14.38;5.78;;;22.40;98.20;;;;;;5107098;28;20134;-84
2023/07/16 08:23:08;;;;;;;13.32;5.57;;;22.40;98.40;;;;;;5107511;28;20118;-83
2023/07/16 08:25:34;;;;;;;9.35;5.13;;;22.20;98.30;;;;;;5090217;28;20045;-83
2023/07/16 08:28:02;;;;;;;11.40;6.43;;;22.20;98.50;;;;;;5090247;28;20036;-84
2023/07/16 08:30:31;;;;;;;11.05;6.80;;;22.20;98.60;;;;;;5090881;28;20180;-85
2023/07/16 08:32:56;;;;;;;10.65;6.63;;;22.10;98.70;;;;;;5107355;28;20470;-85
2023/07/16 08:35:28;;;;;;;13.50;5.90;;;22.30;98.50;;;;;;5107172;28;20040;-84
2023/07/16 08:37:53;;;;;;;8.55;5.35;;;22.50;98.40;;;;;;5090315;28;20055;-84
2023/07/16 08:40:29;;;;;;;14.93;6.32;;;22.40;98.50;;;;;;5090438;28;20043;-84
2023/07/16 08:43:00;;;;;;;8.82;6.10;;;22.00;98.60;;;;;;5107691;28;20341;-84
2023/07/16 08:45:29;;;;;;;10.82;6.20;;;22.00;98.20;;;;;;5107651;28;20046;-84
2023/07/16 08:47:55;;;;;;;14.13;7.03;;;21.90;98.50;;;;;;5089587;28;20083;-84
2023/07/16 08:50:26;;;;;;;13.07;6.25;;;22.00;99.00;;;;;;5106921;28;20047;-85
2023/07/16 08:52:54;;;;;;;10.20;6.85;;;21.90;98.80;;;;;;5094230;28;20042;-84
2023/07/16 08:55:19;;;;;;;12.52;6.93;;;22.00;98.80;;;;;;5112576;28;20123;-84
2023/07/16 08:57:48;;;;;;;11.55;7.20;;;22.50;99.20;;;;;;5113742;28;20110;-86
2023/07/16 09:00:15;;;;;;;15.82;5.38;;;23.30;98.90;;;;;;5112072;28;20436;-84
2023/07/16 09:02:41;;;;;;;11.27;4.97;;;23.80;97.90;;;;;;5110475;28;20043;-83
2023/07/16 09:05:09;;;;;;;9.20;5.10;;;24.20;97.50;;;;;;5110172;28;20614;-86
2023/07/16 09:07:37;;;;;;;8.93;5.25;;;24.40;96.70;;;;;;5110828;28;20139;-84
2023/07/16 09:10:04;;;;;;;9.25;4.95;;;24.10;96.50;;;;;;5109577;28;20039;-85
2023/07/16 09:12:29;;;;;;;9.65;5.25;;;23.90;96.90;;;;;;5109557;28;20071;-86
2023/07/16 09:14:55;;;;;;;10.05;5.10;;;23.90;97.10;;;;;;5110523;28;20074;-85
2023/07/16 09:17:25;;;;;;;11.05;5.45;;;23.80;97.10;;;;;;5110270;28;20408;-85
2023/07/16 09:19:54;;;;;;;12.60;6.05;;;23.60;97.00;;;;;;5092742;28;20257;-85
2023/07/16 09:22:20;;;;;;;16.48;5.95;;;23.50;97.40;;;;;;5093091;28;20485;-86
2023/07/16 09:24:47;;;;;;;12.43;6.40;;;23.30;96.70;;;;;;5093184;28;20049;-85
2023/07/16 09:27:13;;;;;;;14.05;5.35;;;23.20;97.10;;;;;;5111701;28;20039;-86
2023/07/16 09:29:40;;;;;;;12.38;5.57;;;23.10;97.10;;;;;;5110691;28;20089;-87
2023/07/16 09:32:06;;;;;;;12.73;6.05;;;23.00;97.40;;;;;;5111540;28;20406;-86
2023/07/16 09:34:32;;;;;;;15.75;5.25;;;23.10;97.60;;;;;;5092961;28;20041;-87
2023/07/16 09:37:01;;;;;;;8.90;5.07;;;23.00;97.90;;;;;;5093413;28;20044;-86
2023/07/16 09:39:35;;;;;;;10.43;5.43;;;22.90;97.50;;;;;;5093604;28;20043;-86
2023/07/16 09:42:07;;;;;;;10.30;5.47;;;22.80;97.60;;;;;;5109481;28;20048;-86
2023/07/16 09:44:34;;;;;;;15.47;5.83;;;23.10;98.30;;;;;;5111719;28;20104;-86
2023/07/16 09:47:00;;;;;;;12.70;4.88;;;23.40;98.00;;;;;;5110484;28;20646;-85
2023/07/16 09:49:31;;;;;;;11.68;4.55;;;23.50;97.30;;;;;;5109811;28;20043;-85
2023/07/16 09:55:03;;;;;;;10.32;5.18;;;23.10;97.20;;;;;;5102160;28;20084;-86
2023/07/16 09:57:35;;;;;;;9.90;4.43;;;23.50;97.70;;;;;;5109802;28;20062;-86
2023/07/16 10:00:11;;;;;;;10.50;6.55;;;23.20;97.40;;;;;;5109916;28;20039;-84
2023/07/16 10:02:38;;;;;;;7.20;4.53;;;23.30;97.80;;;;;;5108256;28;20039;-83
2023/07/16 10:05:21;;;;;;;10.55;5.90;;;23.30;97.30;;;;;;5109799;28;20084;-83
2023/07/16 10:07:58;;;;;;;8.35;4.95;;;23.10;97.30;;;;;;5093066;28;20051;-86
2023/07/16 10:10:43;;;;;;;9.85;5.10;;;23.20;97.20;;;;;;5091355;28;20039;-87
2023/07/16 10:13:12;;;;;;;14.70;5.95;;;22.90;97.40;;;;;;5113938;28;20032;-86
2023/07/16 10:15:39;;;;;;;10.95;5.38;;;22.70;97.30;;;;;;5125259;28;20044;-87
2023/07/16 10:18:06;;;;;;;9.18;4.57;;;22.80;97.80;;;;;;5097436;28;20036;-88
2023/07/16 10:20:43;;;;;;;9.15;5.32;;;22.90;97.80;;;;;;5107148;28;20043;-88
2023/07/16 10:23:13;;;;;;;12.73;6.47;;;22.90;97.50;;;;;;5117879;28;20047;-87
2023/07/16 10:25:40;;;;;;;14.68;6.07;;;22.80;97.20;;;;;;5112382;28;20039;-85
2023/07/16 10:28:05;;;;;;;9.95;6.15;;;22.70;97.70;;;;;;5094833;28;20039;-86
2023/07/16 10:33:24;;;;;;;12.20;5.68;;;23.00;97.70;;;;;;5109730;28;20042;-86
2023/07/16 10:35:59;;;;;;;16.38;9.43;;;23.30;97.80;;;;;;5092367;28;20062;-85
2023/07/16 10:38:41;;;;;;;17.27;5.10;;;23.40;96.90;;;;;;5110613;28;20055;-87
2023/07/16 10:41:28;;;;;;;9.20;5.35;;;23.60;97.50;;;;;;5111053;28;20039;-88
2023/07/16 10:43:54;;;;;;;10.93;5.60;;;23.80;97.50;;;;;;5093002;28;20048;-89
2023/07/16 10:46:23;;;;;;;12.15;4.60;;;23.90;97.00;;;;;;5092063;28;20040;-86
2023/07/16 10:48:51;;;;;;;11.73;4.90;;;23.70;97.00;;;;;;5094211;28;20043;-87
2023/07/16 10:51:17;;;;;;;7.25;4.55;;;23.80;97.20;;;;;;5094471;28;20043;-88
2023/07/16 10:53:46;;;;;;;10.07;4.78;;;23.70;96.80;;;;;;5095998;28;20044;-88
2023/07/16 10:56:12;;;;;;;10.32;4.78;;;23.70;97.30;;;;;;5094475;28;20035;-85
2023/07/16 10:58:38;;;;;;;9.68;5.03;;;23.70;97.20;;;;;;5094118;28;20043;-85
2023/07/16 11:01:09;;;;;;;8.38;4.35;;;23.70;97.40;;;;;;5093424;28;20079;-86
2023/07/16 11:03:45;;;;;;;10.73;4.78;;;23.70;96.60;;;;;;5110276;28;20043;-86
2023/07/16 11:06:15;;;;;;;11.25;4.53;;;23.50;96.90;;;;;;5093343;28;20522;-86
2023/07/16 11:09:05;;;;;;;8.23;4.65;;;23.50;97.00;;;;;;5110765;28;20519;-87
2023/07/16 11:11:40;;;;;;;9.77;4.63;;;23.40;97.00;;;;;;5093643;28;20047;-87
2023/07/16 11:14:11;;;;;;;8.48;4.78;;;23.50;97.20;;;;;;5109816;28;20046;-85
2023/07/16 11:16:48;;;;;;;10.93;4.43;;;23.70;97.00;;;;;;5093539;28;20044;-86
2023/07/16 11:19:25;;;;;;;11.77;4.32;;;23.90;97.10;;;;;;5093410;28;20079;-86
2023/07/16 11:22:14;;;;;;;10.02;4.15;;;24.00;96.60;;;;;;5094007;28;20202;-86
2023/07/16 11:24:49;;;;;;;8.55;4.00;;;23.90;96.80;;;;;;5086787;28;20054;-87
2023/07/16 11:27:32;;;;;;;12.18;4.18;;;23.80;96.80;;;;;;5106291;28;20047;-85
2023/07/16 11:30:04;;;;;;;12.18;4.50;;;23.70;97.00;;;;;;5106613;28;20114;-86
2023/07/16 11:32:57;;;;;;;11.23;5.15;;;23.80;96.90;;;;;;5089375;28;20078;-86
2023/07/16 11:35:23;;;;;;;;;;;23.80;97.10;;;;;;5102305;28;20504;-85
2023/07/16 11:37:48;;;;;;;12.52;4.50;;;23.60;96.90;;;;;;5106131;28;19966;-86
2023/07/16 11:40:22;;;;;;;10.55;4.50;;;23.50;96.90;;;;;;5088370;28;20224;-86
2023/07/16 11:42:47;;;;;;;11.45;5.85;;;23.40;97.10;;;;;;5088437;28;20028;-86
2023/07/16 11:45:35;;;;;;;11.05;4.32;;;23.10;96.90;;;;;;5087842;28;20493;-86
2023/07/16 11:48:05;;;;;;;9.95;4.88;;;23.00;97.40;;;;;;5085599;28;20464;-86
2023/07/16 11:50:31;;;;;;;8.75;5.90;;;22.70;97.40;;;;;;5073469;28;20073;-87
2023/07/16 12:18:24;;;;;;;12.35;5.20;;;23.30;97.50;;;;;;4237889;23;20053;-84
2023/07/16 12:20:50;;;;;;;9.07;5.82;;;23.40;97.40;;;;;;4993081;28;20038;-84
2023/07/16 12:23:16;;;;;;;13.48;5.72;;;23.50;97.60;;;;;;4990517;28;20038;-84
2023/07/16 12:25:43;;;;;;;6.90;4.65;;;23.50;97.90;;;;;;5002029;28;20045;-83
2023/07/16 12:28:09;;;;;;;12.55;5.00;;;23.40;97.60;;;;;;5010766;28;20038;-82
2023/07/16 12:30:34;;;;;;;13.38;4.88;;;23.40;97.70;;;;;;5010000;28;20582;-83
2023/07/16 12:33:00;;;;;;;11.10;4.57;;;23.70;97.40;;;;;;5017190;28;20037;-84
2023/07/16 12:35:26;;;;;;;13.57;4.55;;;23.80;97.20;;;;;;5010549;28;20038;-83
2023/07/16 12:37:51;;;;;;;10.55;4.65;;;23.80;97.10;;;;;;5015419;28;20091;-84
2023/07/16 12:40:17;;;;;;;11.15;5.25;;;23.60;96.60;;;;;;5016599;28;20045;-84
2023/07/16 12:42:43;;;;;;;12.93;5.63;;;23.40;97.20;;;;;;5028599;28;20114;-83
2023/07/16 12:45:09;;;;;;;13.60;7.63;;;23.20;98.60;;;;;;5029148;28;20049;-81
2023/07/16 12:47:35;;;;;;;14.68;7.18;;;22.90;99.90;;;;;;5021594;28;20042;-80
2023/07/16 12:50:00;;;;;;;10.73;5.72;;;22.40;99.90;;;;;;5013846;28;20045;-81
2023/07/16 12:52:26;;;;;;;17.20;7.07;;;22.10;99.90;;;;;;5008954;28;20104;-81
2023/07/16 12:54:52;;;;;;;11.32;6.57;;;22.00;99.90;;;;;;5012372;28;20488;-82
2023/07/16 12:57:17;;;;;;;11.02;6.70;;;22.20;99.90;;;;;;5019542;28;20504;-82
2023/07/16 12:59:43;;;;;;;15.38;6.68;;;22.30;99.90;;;;;;5018281;28;20045;-81
2023/07/16 13:02:11;;;;;;;10.02;6.07;;;22.40;99.90;;;;;;5021612;28;20034;-82
2023/07/16 13:04:37;;;;;;;12.13;6.82;;;22.30;99.90;;;;;;4996234;28;20038;-84
2023/07/16 13:07:03;;;;;;;12.07;5.85;;;22.20;99.90;;;;;;5020381;28;20083;-81
2023/07/16 13:09:28;;;;;;;10.63;6.13;;;22.00;99.90;;;;;;5029606;28;20045;-80